Zhe Pu Tuo 2012 — BKRA5 — position and weather

sailwx.info

Track history (hours):
 
Tides and Currents Weather Stations Pressure Air Temp Water Temp Dewpoint Dewpoint Depression Visibility Wind Speed Wind Dir Waves Ship Positions

Zhe Pu Tuo 2012

Last reported at 2016-Sep-25 04:31 UTC. Time now 2016-Sep-29 20:24 UTC.
Position N 38°58' E 117°49'.

Length 57 m; draft 3.7 m.

Type: Tug. MMSI: 412763040.

Date/timePositionNaut miles runAvg speedWind from/ knotsBaromVisibWave heightAir tempDewpointWater temp
2016-Sep-25 04:31N 38°58' E 117°49'4 1.1
2016-Sep-25 00:33N 38°59' E 117°44'0 0.1
2016-Sep-24 22:33N 38°59' E 117°43'0 0.0
2016-Sep-24 21:15N 38°59' E 117°43'0 0.0
2016-Sep-24 19:21N 38°59' E 117°43'0 0.0
2016-Sep-24 18:27N 38°59' E 117°43'0 0.0
2016-Sep-24 17:33N 38°59' E 117°43'0 0.0
2016-Sep-24 16:27N 38°59' E 117°43'0 0.0
2016-Sep-24 14:33N 38°59' E 117°43'0 0.0
2016-Sep-24 12:27N 38°59' E 117°43'0 0.0
2016-Sep-24 10:21N 38°59' E 117°43'0 0.0
2016-Sep-24 09:27N 38°59' E 117°43'0 0.0
2016-Sep-24 03:33N 38°59' E 117°43'0 0.0
2016-Sep-24 02:21N 38°59' E 117°43'0 0.0
2016-Sep-24 01:21N 38°59' E 117°43'0 0.0
2016-Sep-24 00:33N 38°59' E 117°43'0 0.0
2016-Sep-23 19:27N 38°59' E 117°43'0 0.0
2016-Sep-23 17:33N 38°59' E 117°43'0 0.0
2016-Sep-23 16:21N 38°59' E 117°43'0 0.0
2016-Sep-23 15:33N 38°59' E 117°43'  
2016-Sep-17 05:33N 38°57' E 117°52'7 6.4
2016-Sep-17 04:31N 38°59' E 117°44'0 0.1
2016-Sep-17 00:32N 38°59' E 117°43'0 0.0
2016-Sep-16 17:32N 38°59' E 117°43'0 0.0
2016-Sep-16 15:32N 38°59' E 117°43'0 0.0
2016-Sep-16 12:32N 38°59' E 117°43'0 0.0
2016-Sep-16 09:32N 38°59' E 117°43'0 0.0
2016-Sep-16 07:32N 38°59' E 117°43'0 0.0
2016-Sep-16 03:32N 38°59' E 117°43'0 0.0
2016-Sep-16 02:20N 38°59' E 117°43'0 0.0
2016-Sep-16 00:32N 38°59' E 117°43'0 0.0
2016-Sep-15 22:32N 38°59' E 117°43'0 0.0
2016-Sep-15 21:32N 38°59' E 117°43'0 0.0
2016-Sep-15 20:32N 38°59' E 117°43'0 0.0
2016-Sep-15 18:32N 38°59' E 117°43'0 0.0
2016-Sep-15 12:32N 38°59' E 117°43'0 0.0
2016-Sep-15 11:26N 38°59' E 117°43'0 0.0
2016-Sep-15 04:33N 38°59' E 117°43'  
Track history (hours):
 
Tides and Currents Weather Stations Pressure Air Temp Water Temp Dewpoint Dewpoint Depression Visibility Wind Speed Wind Dir Waves Ship Positions

Zhe Pu Tuo 2012

Last reported at 2016-Sep-25 04:31 UTC. Time now 2016-Sep-29 20:24 UTC.
Position N 38°58' E 117°49'.

Length 57 m; draft 3.7 m.

Type: Tug. MMSI: 412763040.

Date/timePositionNaut miles runAvg speedWind from/ knotsBaromVisibWave heightAir tempDewpointWater temp
2016-Sep-25 04:31N 38°58' E 117°49'4 1.1
2016-Sep-25 00:33N 38°59' E 117°44'0 0.1
2016-Sep-24 22:33N 38°59' E 117°43'0 0.0
2016-Sep-24 21:15N 38°59' E 117°43'0 0.0
2016-Sep-24 19:21N 38°59' E 117°43'0 0.0
2016-Sep-24 18:27N 38°59' E 117°43'0 0.0
2016-Sep-24 17:33N 38°59' E 117°43'0 0.0
2016-Sep-24 16:27N 38°59' E 117°43'0 0.0
2016-Sep-24 14:33N 38°59' E 117°43'0 0.0
2016-Sep-24 12:27N 38°59' E 117°43'0 0.0
2016-Sep-24 10:21N 38°59' E 117°43'0 0.0
2016-Sep-24 09:27N 38°59' E 117°43'0 0.0
2016-Sep-24 03:33N 38°59' E 117°43'0 0.0
2016-Sep-24 02:21N 38°59' E 117°43'0 0.0
2016-Sep-24 01:21N 38°59' E 117°43'0 0.0
2016-Sep-24 00:33N 38°59' E 117°43'0 0.0
2016-Sep-23 19:27N 38°59' E 117°43'0 0.0
2016-Sep-23 17:33N 38°59' E 117°43'0 0.0
2016-Sep-23 16:21N 38°59' E 117°43'0 0.0
2016-Sep-23 15:33N 38°59' E 117°43'  
2016-Sep-17 05:33N 38°57' E 117°52'7 6.4
2016-Sep-17 04:31N 38°59' E 117°44'0 0.1
2016-Sep-17 00:32N 38°59' E 117°43'0 0.0
2016-Sep-16 17:32N 38°59' E 117°43'0 0.0
2016-Sep-16 15:32N 38°59' E 117°43'0 0.0
2016-Sep-16 12:32N 38°59' E 117°43'0 0.0
2016-Sep-16 09:32N 38°59' E 117°43'0 0.0
2016-Sep-16 07:32N 38°59' E 117°43'0 0.0
2016-Sep-16 03:32N 38°59' E 117°43'0 0.0
2016-Sep-16 02:20N 38°59' E 117°43'0 0.0
2016-Sep-16 00:32N 38°59' E 117°43'0 0.0
2016-Sep-15 22:32N 38°59' E 117°43'0 0.0
2016-Sep-15 21:32N 38°59' E 117°43'0 0.0
2016-Sep-15 20:32N 38°59' E 117°43'0 0.0
2016-Sep-15 18:32N 38°59' E 117°43'0 0.0
2016-Sep-15 12:32N 38°59' E 117°43'0 0.0
2016-Sep-15 11:26N 38°59' E 117°43'0 0.0
2016-Sep-15 04:33N 38°59' E 117°43'  

Dump ship's entire track history